sensor_id;sensor_type;location;lat;lon;timestamp;pressure;altitude;pressure_sealevel;temperature;humidity
60611;BME280;46439;51.164;13.572;2022-08-30T00:01:25;100530.80;;;16.76;75.91
60611;BME280;46439;51.164;13.572;2022-08-30T00:03:54;100526.77;;;16.72;75.90
60611;BME280;46439;51.164;13.572;2022-08-30T00:06:23;100527.50;;;16.69;75.77
60611;BME280;46439;51.164;13.572;2022-08-30T00:08:53;100527.63;;;16.67;75.93
60611;BME280;46439;51.164;13.572;2022-08-30T00:11:24;100528.37;;;16.64;75.75
60611;BME280;46439;51.164;13.572;2022-08-30T00:13:53;100523.88;;;16.61;75.77
60611;BME280;46439;51.164;13.572;2022-08-30T00:16:23;100524.42;;;16.61;75.76
60611;BME280;46439;51.164;13.572;2022-08-30T00:18:56;100525.27;;;16.60;75.95
60611;BME280;46439;51.164;13.572;2022-08-30T00:21:25;100523.92;;;16.59;76.04
60611;BME280;46439;51.164;13.572;2022-08-30T00:23:54;100526.02;;;16.57;75.91
60611;BME280;46439;51.164;13.572;2022-08-30T00:26:22;100530.56;;;16.54;75.94
60611;BME280;46439;51.164;13.572;2022-08-30T00:28:51;100530.89;;;16.52;75.93
60611;BME280;46439;51.164;13.572;2022-08-30T00:31:19;100533.89;;;16.48;75.86
60611;BME280;46439;51.164;13.572;2022-08-30T00:33:48;100537.90;;;16.45;75.99
60611;BME280;46439;51.164;13.572;2022-08-30T00:36:17;100541.55;;;16.43;75.94
60611;BME280;46439;51.164;13.572;2022-08-30T00:38:45;100537.84;;;16.40;76.01
60611;BME280;46439;51.164;13.572;2022-08-30T00:41:13;100542.05;;;16.35;75.98
60611;BME280;46439;51.164;13.572;2022-08-30T00:43:42;100540.30;;;16.28;75.78
60611;BME280;46439;51.164;13.572;2022-08-30T00:46:10;100540.10;;;16.22;75.75
60611;BME280;46439;51.164;13.572;2022-08-30T00:48:41;100540.95;;;16.17;75.51
60611;BME280;46439;51.164;13.572;2022-08-30T00:51:12;100543.50;;;16.17;75.76
60611;BME280;46439;51.164;13.572;2022-08-30T00:53:44;100545.08;;;16.13;75.86
60611;BME280;46439;51.164;13.572;2022-08-30T00:56:14;100538.21;;;16.07;75.73
60611;BME280;46439;51.164;13.572;2022-08-30T00:58:49;100534.59;;;16.03;75.76
60611;BME280;46439;51.164;13.572;2022-08-30T01:01:18;100535.02;;;15.98;75.86
60611;BME280;46439;51.164;13.572;2022-08-30T01:03:48;100532.13;;;15.91;75.77
60611;BME280;46439;51.164;13.572;2022-08-30T01:06:17;100531.40;;;15.89;75.80
60611;BME280;46439;51.164;13.572;2022-08-30T01:08:46;100529.89;;;15.87;75.84
60611;BME280;46439;51.164;13.572;2022-08-30T01:11:17;100530.55;;;15.86;75.97
60611;BME280;46439;51.164;13.572;2022-08-30T01:13:48;100533.72;;;15.86;76.20
60611;BME280;46439;51.164;13.572;2022-08-30T01:16:19;100534.70;;;15.87;76.40
60611;BME280;46439;51.164;13.572;2022-08-30T01:18:48;100536.04;;;15.86;76.44
60611;BME280;46439;51.164;13.572;2022-08-30T01:21:22;100534.01;;;15.83;76.48
60611;BME280;46439;51.164;13.572;2022-08-30T01:23:56;100536.14;;;15.83;76.43
60611;BME280;46439;51.164;13.572;2022-08-30T01:26:27;100531.98;;;15.82;76.50
60611;BME280;46439;51.164;13.572;2022-08-30T01:28:59;100531.77;;;15.80;76.47
60611;BME280;46439;51.164;13.572;2022-08-30T01:31:29;100532.25;;;15.79;76.42
60611;BME280;46439;51.164;13.572;2022-08-30T01:33:57;100530.66;;;15.79;76.49
60611;BME280;46439;51.164;13.572;2022-08-30T01:36:28;100534.23;;;15.79;76.66
60611;BME280;46439;51.164;13.572;2022-08-30T01:38:57;100528.99;;;15.80;76.73
60611;BME280;46439;51.164;13.572;2022-08-30T01:41:28;100527.46;;;15.82;76.74
60611;BME280;46439;51.164;13.572;2022-08-30T01:44:00;100535.51;;;15.82;76.94
60611;BME280;46439;51.164;13.572;2022-08-30T01:46:29;100537.89;;;15.82;77.02
60611;BME280;46439;51.164;13.572;2022-08-30T01:48:58;100541.77;;;15.80;77.04
60611;BME280;46439;51.164;13.572;2022-08-30T01:51:28;100539.54;;;15.77;77.09
60611;BME280;46439;51.164;13.572;2022-08-30T01:53:57;100536.56;;;15.76;77.17
60611;BME280;46439;51.164;13.572;2022-08-30T01:56:27;100535.98;;;15.77;77.12
60611;BME280;46439;51.164;13.572;2022-08-30T01:58:56;100539.18;;;15.73;77.16
60611;BME280;46439;51.164;13.572;2022-08-30T02:01:26;100541.29;;;15.70;77.11
60611;BME280;46439;51.164;13.572;2022-08-30T02:03:56;100532.13;;;15.70;77.31
60611;BME280;46439;51.164;13.572;2022-08-30T02:06:25;100530.33;;;15.70;77.18
60611;BME280;46439;51.164;13.572;2022-08-30T02:08:53;100529.54;;;15.66;77.08
60611;BME280;46439;51.164;13.572;2022-08-30T02:11:22;100526.97;;;15.59;76.95
60611;BME280;46439;51.164;13.572;2022-08-30T02:13:50;100525.48;;;15.53;76.86
60611;BME280;46439;51.164;13.572;2022-08-30T02:16:21;100521.31;;;15.52;76.93
60611;BME280;46439;51.164;13.572;2022-08-30T02:18:52;100529.65;;;15.48;76.81
60611;BME280;46439;51.164;13.572;2022-08-30T02:21:21;100529.04;;;15.41;76.68
60611;BME280;46439;51.164;13.572;2022-08-30T02:23:50;100528.34;;;15.41;76.95
60611;BME280;46439;51.164;13.572;2022-08-30T02:26:19;100525.27;;;15.40;77.01
60611;BME280;46439;51.164;13.572;2022-08-30T02:28:48;100525.13;;;15.36;77.15
60611;BME280;46439;51.164;13.572;2022-08-30T02:31:17;100527.89;;;15.37;77.20
60611;BME280;46439;51.164;13.572;2022-08-30T02:33:47;100533.63;;;15.38;77.38
60611;BME280;46439;51.164;13.572;2022-08-30T02:36:15;100532.29;;;15.39;77.39
60611;BME280;46439;51.164;13.572;2022-08-30T02:38:45;100532.40;;;15.41;77.46
60611;BME280;46439;51.164;13.572;2022-08-30T02:41:13;100530.63;;;15.40;77.55
60611;BME280;46439;51.164;13.572;2022-08-30T02:43:42;100529.25;;;15.40;77.49
60611;BME280;46439;51.164;13.572;2022-08-30T02:46:10;100530.00;;;15.41;77.74
60611;BME280;46439;51.164;13.572;2022-08-30T02:48:39;100528.09;;;15.42;77.77
60611;BME280;46439;51.164;13.572;2022-08-30T02:51:09;100529.55;;;15.41;77.66
60611;BME280;46439;51.164;13.572;2022-08-30T02:53:39;100532.38;;;15.39;77.65
60611;BME280;46439;51.164;13.572;2022-08-30T02:56:08;100531.88;;;15.39;77.63
60611;BME280;46439;51.164;13.572;2022-08-30T02:58:37;100527.29;;;15.40;77.76
60611;BME280;46439;51.164;13.572;2022-08-30T03:01:06;100528.87;;;15.40;77.78
60611;BME280;46439;51.164;13.572;2022-08-30T03:03:35;100528.41;;;15.41;77.98
60611;BME280;46439;51.164;13.572;2022-08-30T03:06:06;100528.23;;;15.38;77.92
60611;BME280;46439;51.164;13.572;2022-08-30T03:08:35;100530.82;;;15.34;77.87
60611;BME280;46439;51.164;13.572;2022-08-30T03:11:04;100532.48;;;15.33;77.87
60611;BME280;46439;51.164;13.572;2022-08-30T03:13:32;100530.39;;;15.32;77.87
60611;BME280;46439;51.164;13.572;2022-08-30T03:16:00;100525.76;;;15.33;77.97
60611;BME280;46439;51.164;13.572;2022-08-30T03:18:29;100525.45;;;15.32;78.09
60611;BME280;46439;51.164;13.572;2022-08-30T03:20:57;100525.82;;;15.31;78.17
60611;BME280;46439;51.164;13.572;2022-08-30T03:23:26;100524.99;;;15.28;78.07
60611;BME280;46439;51.164;13.572;2022-08-30T03:25:54;100524.86;;;15.26;78.03
60611;BME280;46439;51.164;13.572;2022-08-30T03:28:24;100530.78;;;15.24;78.01
60611;BME280;46439;51.164;13.572;2022-08-30T03:30:52;100527.48;;;15.22;77.95
60611;BME280;46439;51.164;13.572;2022-08-30T03:33:21;100526.33;;;15.22;78.03
60611;BME280;46439;51.164;13.572;2022-08-30T03:35:49;100526.11;;;15.20;78.11
60611;BME280;46439;51.164;13.572;2022-08-30T03:38:18;100523.75;;;15.18;78.14
60611;BME280;46439;51.164;13.572;2022-08-30T03:40:46;100518.44;;;15.19;78.22
60611;BME280;46439;51.164;13.572;2022-08-30T03:43:15;100519.94;;;15.19;78.34
60611;BME280;46439;51.164;13.572;2022-08-30T03:45:43;100517.59;;;15.18;78.38
60611;BME280;46439;51.164;13.572;2022-08-30T03:48:14;100516.92;;;15.14;78.24
60611;BME280;46439;51.164;13.572;2022-08-30T03:50:43;100516.92;;;15.10;78.05
60611;BME280;46439;51.164;13.572;2022-08-30T03:53:14;100518.15;;;15.07;78.04
60611;BME280;46439;51.164;13.572;2022-08-30T03:55:42;100519.95;;;15.07;78.14
60611;BME280;46439;51.164;13.572;2022-08-30T03:58:11;100520.77;;;15.08;78.27
60611;BME280;46439;51.164;13.572;2022-08-30T04:00:39;100517.09;;;15.06;78.30
60611;BME280;46439;51.164;13.572;2022-08-30T04:03:07;100520.88;;;15.03;78.16
60611;BME280;46439;51.164;13.572;2022-08-30T04:05:36;100521.45;;;14.97;78.03
60611;BME280;46439;51.164;13.572;2022-08-30T04:08:05;100524.76;;;14.93;77.95
60611;BME280;46439;51.164;13.572;2022-08-30T04:10:33;100527.20;;;14.93;78.01
60611;BME280;46439;51.164;13.572;2022-08-30T04:13:02;100529.45;;;14.91;78.22
60611;BME280;46439;51.164;13.572;2022-08-30T04:15:30;100529.64;;;14.88;78.34
60611;BME280;46439;51.164;13.572;2022-08-30T04:17:59;100532.67;;;14.84;78.24
60611;BME280;46439;51.164;13.572;2022-08-30T04:20:27;100534.80;;;14.78;78.18
60611;BME280;46439;51.164;13.572;2022-08-30T04:22:55;100537.50;;;14.77;78.28
60611;BME280;46439;51.164;13.572;2022-08-30T04:25:24;100544.02;;;14.80;78.36
60611;BME280;46439;51.164;13.572;2022-08-30T04:27:53;100548.42;;;14.81;78.52
60611;BME280;46439;51.164;13.572;2022-08-30T04:30:23;100549.75;;;14.84;78.42
60611;BME280;46439;51.164;13.572;2022-08-30T04:32:51;100550.92;;;14.84;78.56
60611;BME280;46439;51.164;13.572;2022-08-30T04:35:23;100550.35;;;14.86;78.65
60611;BME280;46439;51.164;13.572;2022-08-30T04:37:50;100550.80;;;14.88;78.77
60611;BME280;46439;51.164;13.572;2022-08-30T04:40:18;100551.30;;;14.90;78.80
60611;BME280;46439;51.164;13.572;2022-08-30T04:42:47;100556.40;;;14.88;78.87
60611;BME280;46439;51.164;13.572;2022-08-30T04:45:16;100559.82;;;14.84;78.87
60611;BME280;46439;51.164;13.572;2022-08-30T04:47:45;100560.05;;;14.81;78.88
60611;BME280;46439;51.164;13.572;2022-08-30T04:50:16;100564.57;;;14.82;78.84
60611;BME280;46439;51.164;13.572;2022-08-30T04:52:45;100566.31;;;14.81;78.96
60611;BME280;46439;51.164;13.572;2022-08-30T04:55:14;100568.23;;;14.81;78.96
60611;BME280;46439;51.164;13.572;2022-08-30T04:57:42;100568.00;;;14.78;78.81
60611;BME280;46439;51.164;13.572;2022-08-30T05:00:13;100571.71;;;14.77;78.82
60611;BME280;46439;51.164;13.572;2022-08-30T05:02:42;100570.67;;;14.78;78.76
60611;BME280;46439;51.164;13.572;2022-08-30T05:05:11;100575.23;;;14.81;78.89
60611;BME280;46439;51.164;13.572;2022-08-30T05:07:58;100577.38;;;14.87;79.14
60611;BME280;46439;51.164;13.572;2022-08-30T05:10:27;100579.52;;;14.92;79.21
60611;BME280;46439;51.164;13.572;2022-08-30T05:12:56;100582.32;;;14.94;79.24
60611;BME280;46439;51.164;13.572;2022-08-30T05:15:25;100583.95;;;14.94;79.26
60611;BME280;46439;51.164;13.572;2022-08-30T05:17:55;100585.25;;;14.94;79.37
60611;BME280;46439;51.164;13.572;2022-08-30T05:20:24;100582.08;;;14.95;79.30
60611;BME280;46439;51.164;13.572;2022-08-30T05:22:53;100584.48;;;14.94;79.31
60611;BME280;46439;51.164;13.572;2022-08-30T05:25:23;100588.58;;;14.96;79.41
60611;BME280;46439;51.164;13.572;2022-08-30T05:27:53;100586.53;;;14.98;79.56
60611;BME280;46439;51.164;13.572;2022-08-30T05:30:23;100589.89;;;14.99;79.42
60611;BME280;46439;51.164;13.572;2022-08-30T05:32:51;100592.98;;;14.98;79.52
60611;BME280;46439;51.164;13.572;2022-08-30T05:35:21;100592.42;;;15.02;79.63
60611;BME280;46439;51.164;13.572;2022-08-30T05:37:50;100593.91;;;15.02;79.66
60611;BME280;46439;51.164;13.572;2022-08-30T05:40:19;100595.13;;;15.04;79.62
60611;BME280;46439;51.164;13.572;2022-08-30T05:42:47;100591.30;;;15.06;79.71
60611;BME280;46439;51.164;13.572;2022-08-30T05:45:16;100595.36;;;15.09;79.78
60611;BME280;46439;51.164;13.572;2022-08-30T05:47:45;100594.80;;;15.09;79.71
60611;BME280;46439;51.164;13.572;2022-08-30T05:50:15;100595.86;;;15.09;79.75
60611;BME280;46439;51.164;13.572;2022-08-30T05:52:44;100599.30;;;15.13;79.79
60611;BME280;46439;51.164;13.572;2022-08-30T05:55:13;100597.93;;;15.15;79.80
60611;BME280;46439;51.164;13.572;2022-08-30T05:57:42;100594.23;;;15.16;79.81
60611;BME280;46439;51.164;13.572;2022-08-30T06:00:15;100599.65;;;15.19;80.04
60611;BME280;46439;51.164;13.572;2022-08-30T06:02:45;100598.59;;;15.22;80.01
60611;BME280;46439;51.164;13.572;2022-08-30T06:05:13;100604.46;;;15.27;80.16
60611;BME280;46439;51.164;13.572;2022-08-30T06:07:42;100607.80;;;15.31;80.27
60611;BME280;46439;51.164;13.572;2022-08-30T06:10:10;100606.59;;;15.30;80.22
60611;BME280;46439;51.164;13.572;2022-08-30T06:12:39;100605.58;;;15.38;80.36
60611;BME280;46439;51.164;13.572;2022-08-30T06:15:09;100603.31;;;15.56;80.97
60611;BME280;46439;51.164;13.572;2022-08-30T06:17:38;100597.92;;;15.67;81.30
60611;BME280;46439;51.164;13.572;2022-08-30T06:20:09;100598.58;;;15.74;81.33
60611;BME280;46439;51.164;13.572;2022-08-30T06:22:37;100596.61;;;15.75;81.21
60611;BME280;46439;51.164;13.572;2022-08-30T06:25:08;100590.77;;;15.81;81.01
60611;BME280;46439;51.164;13.572;2022-08-30T06:27:36;100589.30;;;15.84;80.91
60611;BME280;46439;51.164;13.572;2022-08-30T06:30:09;100590.37;;;15.87;81.07
60611;BME280;46439;51.164;13.572;2022-08-30T06:32:38;100591.36;;;15.92;81.12
60611;BME280;46439;51.164;13.572;2022-08-30T06:35:11;100594.21;;;15.98;81.27
60611;BME280;46439;51.164;13.572;2022-08-30T06:37:40;100594.00;;;16.04;81.18
60611;BME280;46439;51.164;13.572;2022-08-30T06:40:12;100598.98;;;16.09;81.33
60611;BME280;46439;51.164;13.572;2022-08-30T06:42:41;100597.95;;;16.11;81.38
60611;BME280;46439;51.164;13.572;2022-08-30T06:45:12;100599.55;;;16.13;81.25
60611;BME280;46439;51.164;13.572;2022-08-30T06:47:40;100599.06;;;16.15;81.28
60611;BME280;46439;51.164;13.572;2022-08-30T06:50:11;100599.27;;;16.22;81.58
60611;BME280;46439;51.164;13.572;2022-08-30T06:52:43;100594.39;;;16.26;81.75
60611;BME280;46439;51.164;13.572;2022-08-30T06:55:13;100594.65;;;16.27;81.63
60611;BME280;46439;51.164;13.572;2022-08-30T06:57:43;100597.65;;;16.30;81.51
60611;BME280;46439;51.164;13.572;2022-08-30T07:00:18;100594.69;;;16.33;81.47
60611;BME280;46439;51.164;13.572;2022-08-30T07:02:46;100598.73;;;16.36;81.41
60611;BME280;46439;51.164;13.572;2022-08-30T07:05:15;100598.56;;;16.43;81.48
60611;BME280;46439;51.164;13.572;2022-08-30T07:07:45;100597.67;;;16.51;81.77
60611;BME280;46439;51.164;13.572;2022-08-30T07:10:14;100598.46;;;16.59;81.93
60611;BME280;46439;51.164;13.572;2022-08-30T07:12:43;100591.96;;;16.68;82.06
60611;BME280;46439;51.164;13.572;2022-08-30T07:15:12;100594.29;;;16.80;82.32
60611;BME280;46439;51.164;13.572;2022-08-30T07:17:41;100585.50;;;16.91;82.59
60611;BME280;46439;51.164;13.572;2022-08-30T07:20:28;100590.32;;;17.03;82.80
60611;BME280;46439;51.164;13.572;2022-08-30T07:22:57;100594.08;;;17.13;82.87
60611;BME280;46439;51.164;13.572;2022-08-30T07:25:25;100603.79;;;17.20;82.96
60611;BME280;46439;51.164;13.572;2022-08-30T07:27:54;100605.73;;;17.26;82.98
60611;BME280;46439;51.164;13.572;2022-08-30T07:30:24;100609.36;;;17.33;82.97
60611;BME280;46439;51.164;13.572;2022-08-30T07:32:52;100615.67;;;17.39;83.01
60611;BME280;46439;51.164;13.572;2022-08-30T07:35:21;100616.47;;;17.44;82.93
60611;BME280;46439;51.164;13.572;2022-08-30T07:37:49;100616.66;;;17.52;82.99
60611;BME280;46439;51.164;13.572;2022-08-30T07:40:18;100622.58;;;17.62;83.22
60611;BME280;46439;51.164;13.572;2022-08-30T07:42:49;100621.88;;;17.67;83.39
60611;BME280;46439;51.164;13.572;2022-08-30T07:45:17;100620.23;;;17.68;83.14
60611;BME280;46439;51.164;13.572;2022-08-30T07:47:46;100619.95;;;17.76;83.26
60611;BME280;46439;51.164;13.572;2022-08-30T07:50:14;100616.56;;;17.86;83.37
60611;BME280;46439;51.164;13.572;2022-08-30T07:52:43;100615.14;;;17.97;83.57
60611;BME280;46439;51.164;13.572;2022-08-30T07:55:11;100613.54;;;18.07;83.87
60611;BME280;46439;51.164;13.572;2022-08-30T07:57:39;100610.58;;;18.14;83.87
60611;BME280;46439;51.164;13.572;2022-08-30T08:00:10;100612.04;;;18.20;83.87
60611;BME280;46439;51.164;13.572;2022-08-30T08:02:38;100614.34;;;18.27;83.94
60611;BME280;46439;51.164;13.572;2022-08-30T08:05:09;100616.46;;;18.36;83.97
60611;BME280;46439;51.164;13.572;2022-08-30T08:07:37;100614.01;;;18.44;84.05
60611;BME280;46439;51.164;13.572;2022-08-30T08:10:07;100615.65;;;18.52;84.13
60611;BME280;46439;51.164;13.572;2022-08-30T08:12:36;100616.84;;;18.57;84.07
60611;BME280;46439;51.164;13.572;2022-08-30T08:15:07;100613.61;;;18.61;84.02
60611;BME280;46439;51.164;13.572;2022-08-30T08:17:35;100614.35;;;18.65;84.06
60611;BME280;46439;51.164;13.572;2022-08-30T08:20:05;100618.08;;;18.72;84.08
60611;BME280;46439;51.164;13.572;2022-08-30T08:22:34;100616.67;;;18.79;84.11
60611;BME280;46439;51.164;13.572;2022-08-30T08:25:03;100616.70;;;18.85;84.16
60611;BME280;46439;51.164;13.572;2022-08-30T08:27:32;100612.89;;;18.91;84.19
60611;BME280;46439;51.164;13.572;2022-08-30T08:30:00;100614.83;;;19.01;84.35
60611;BME280;46439;51.164;13.572;2022-08-30T08:32:28;100616.40;;;19.13;84.57
60611;BME280;46439;51.164;13.572;2022-08-30T08:34:57;100617.23;;;19.24;84.67
60611;BME280;46439;51.164;13.572;2022-08-30T08:37:27;100617.51;;;19.32;84.81
60611;BME280;46439;51.164;13.572;2022-08-30T08:39:56;100619.06;;;19.39;84.79
60611;BME280;46439;51.164;13.572;2022-08-30T08:42:31;100616.70;;;19.47;84.64
60611;BME280;46439;51.164;13.572;2022-08-30T08:45:07;100616.19;;;19.54;84.72
60611;BME280;46439;51.164;13.572;2022-08-30T08:47:41;100614.06;;;19.63;84.78
60611;BME280;46439;51.164;13.572;2022-08-30T08:50:16;100618.80;;;19.73;84.85
60611;BME280;46439;51.164;13.572;2022-08-30T08:52:49;100617.13;;;19.83;85.01
60611;BME280;46439;51.164;13.572;2022-08-30T08:55:41;100611.76;;;19.95;85.13
60611;BME280;46439;51.164;13.572;2022-08-30T08:58:17;100616.43;;;20.04;85.23
60611;BME280;46439;51.164;13.572;2022-08-30T09:00:48;100618.17;;;20.07;85.06
60611;BME280;46439;51.164;13.572;2022-08-30T09:03:20;100619.55;;;20.08;84.96
60611;BME280;46439;51.164;13.572;2022-08-30T09:05:50;100618.98;;;20.10;84.86
60611;BME280;46439;51.164;13.572;2022-08-30T09:08:21;100610.19;;;20.13;84.83
60611;BME280;46439;51.164;13.572;2022-08-30T09:10:49;100614.79;;;20.18;84.90
60611;BME280;46439;51.164;13.572;2022-08-30T09:13:20;100611.22;;;20.24;84.95
60611;BME280;46439;51.164;13.572;2022-08-30T09:15:49;100612.63;;;20.27;84.91
60611;BME280;46439;51.164;13.572;2022-08-30T09:18:18;100616.59;;;20.27;84.94
60611;BME280;46439;51.164;13.572;2022-08-30T09:20:47;100614.45;;;20.21;84.60
60611;BME280;46439;51.164;13.572;2022-08-30T09:23:26;100613.27;;;20.19;84.41
60611;BME280;46439;51.164;13.572;2022-08-30T09:25:57;100609.82;;;20.15;84.26
60611;BME280;46439;51.164;13.572;2022-08-30T09:28:29;100607.93;;;20.15;84.25
60611;BME280;46439;51.164;13.572;2022-08-30T09:31:07;100614.94;;;20.15;84.19
60611;BME280;46439;51.164;13.572;2022-08-30T09:33:39;100614.14;;;20.15;84.20
60611;BME280;46439;51.164;13.572;2022-08-30T09:36:15;100611.05;;;20.20;84.27
60611;BME280;46439;51.164;13.572;2022-08-30T09:38:57;100608.51;;;20.26;84.25
60611;BME280;46439;51.164;13.572;2022-08-30T09:41:33;100606.48;;;20.36;84.34
60611;BME280;46439;51.164;13.572;2022-08-30T09:44:13;100601.95;;;20.47;84.42
60611;BME280;46439;51.164;13.572;2022-08-30T09:46:51;100604.05;;;20.59;84.61
60611;BME280;46439;51.164;13.572;2022-08-30T09:49:42;100601.25;;;20.70;84.65
60611;BME280;46439;51.164;13.572;2022-08-30T09:52:22;100600.92;;;20.86;84.93
60611;BME280;46439;51.164;13.572;2022-08-30T09:55:05;100599.91;;;20.95;84.86
60611;BME280;46439;51.164;13.572;2022-08-30T09:57:42;100594.30;;;21.04;84.79
60611;BME280;46439;51.164;13.572;2022-08-30T10:00:16;100591.93;;;21.14;84.75
60611;BME280;46439;51.164;13.572;2022-08-30T10:03:13;100587.05;;;21.26;84.95
60611;BME280;46439;51.164;13.572;2022-08-30T10:05:51;100583.81;;;21.40;84.89
60611;BME280;46439;51.164;13.572;2022-08-30T10:08:36;100584.46;;;21.46;84.78
60611;BME280;46439;51.164;13.572;2022-08-30T10:11:15;100584.85;;;21.56;84.94
60611;BME280;46439;51.164;13.572;2022-08-30T10:13:55;100585.11;;;21.63;84.92
60611;BME280;46439;51.164;13.572;2022-08-30T10:16:44;100584.38;;;21.67;84.79
60611;BME280;46439;51.164;13.572;2022-08-30T10:19:26;100584.23;;;21.65;84.58
60611;BME280;46439;51.164;13.572;2022-08-30T10:21:58;100587.14;;;21.65;84.47
60611;BME280;46439;51.164;13.572;2022-08-30T10:24:32;100585.13;;;21.73;84.44
60611;BME280;46439;51.164;13.572;2022-08-30T10:27:07;100585.15;;;21.83;84.73
60611;BME280;46439;51.164;13.572;2022-08-30T10:29:42;100584.48;;;21.95;84.93
60611;BME280;46439;51.164;13.572;2022-08-30T10:32:18;100577.03;;;22.05;84.82
60611;BME280;46439;51.164;13.572;2022-08-30T10:34:50;100581.45;;;22.16;84.76
60611;BME280;46439;51.164;13.572;2022-08-30T10:37:22;100581.21;;;22.24;84.88
60611;BME280;46439;51.164;13.572;2022-08-30T10:39:53;100579.65;;;22.34;84.83
60611;BME280;46439;51.164;13.572;2022-08-30T10:42:25;100580.29;;;22.47;84.78
60611;BME280;46439;51.164;13.572;2022-08-30T10:44:57;100578.15;;;22.52;84.58
60611;BME280;46439;51.164;13.572;2022-08-30T10:47:36;100573.02;;;22.59;84.47
60611;BME280;46439;51.164;13.572;2022-08-30T10:50:11;100575.66;;;22.70;84.56
60611;BME280;46439;51.164;13.572;2022-08-30T10:52:43;100574.90;;;22.70;84.52
60611;BME280;46439;51.164;13.572;2022-08-30T10:55:18;100574.94;;;22.72;84.12
60611;BME280;46439;51.164;13.572;2022-08-30T10:57:52;100570.77;;;22.71;83.99
60611;BME280;46439;51.164;13.572;2022-08-30T11:00:27;100563.14;;;22.68;83.65
60611;BME280;46439;51.164;13.572;2022-08-30T11:06:14;100567.89;;;22.86;83.76
60611;BME280;46439;51.164;13.572;2022-08-30T11:11:43;100562.81;;;23.05;84.15
60611;BME280;46439;51.164;13.572;2022-08-30T11:14:22;100564.31;;;23.10;84.11
60611;BME280;46439;51.164;13.572;2022-08-30T11:16:54;100562.13;;;23.12;83.60
60611;BME280;46439;51.164;13.572;2022-08-30T11:19:22;100559.98;;;23.12;83.60
60611;BME280;46439;51.164;13.572;2022-08-30T11:21:53;100559.88;;;23.10;83.18
60611;BME280;46439;51.164;13.572;2022-08-30T11:25:03;100559.35;;;23.05;83.11
60611;BME280;46439;51.164;13.572;2022-08-30T11:27:45;100550.44;;;23.11;83.01
60611;BME280;46439;51.164;13.572;2022-08-30T11:30:50;100550.89;;;23.17;83.26
60611;BME280;46439;51.164;13.572;2022-08-30T11:33:38;100546.99;;;23.25;83.19
60611;BME280;46439;51.164;13.572;2022-08-30T11:36:09;100546.06;;;23.32;82.99
60611;BME280;46439;51.164;13.572;2022-08-30T11:39:03;100547.30;;;23.36;82.71
60611;BME280;46439;51.164;13.572;2022-08-30T11:41:36;100544.73;;;23.48;82.88
60611;BME280;46439;51.164;13.572;2022-08-30T11:44:27;100544.96;;;23.62;83.03
60611;BME280;46439;51.164;13.572;2022-08-30T11:46:57;100543.27;;;23.82;83.15
60611;BME280;46439;51.164;13.572;2022-08-30T11:49:47;100540.56;;;23.97;83.08
60611;BME280;46439;51.164;13.572;2022-08-30T11:52:27;100540.41;;;24.00;82.74
60611;BME280;46439;51.164;13.572;2022-08-30T11:55:14;100548.20;;;23.94;82.43
60611;BME280;46439;51.164;13.572;2022-08-30T11:57:49;100547.52;;;23.79;81.59
60611;BME280;46439;51.164;13.572;2022-08-30T12:00:32;100548.92;;;23.65;81.53
60611;BME280;46439;51.164;13.572;2022-08-30T12:03:00;100553.20;;;23.46;80.99
60611;BME280;46439;51.164;13.572;2022-08-30T12:05:58;100546.05;;;23.34;80.84
60611;BME280;46439;51.164;13.572;2022-08-30T12:11:52;100547.00;;;23.16;80.62
60611;BME280;46439;51.164;13.572;2022-08-30T12:14:49;100541.23;;;23.03;80.33
60611;BME280;46439;51.164;13.572;2022-08-30T12:17:51;100538.91;;;22.94;80.44
60611;BME280;46439;51.164;13.572;2022-08-30T12:20:43;100537.34;;;22.92;80.46
60611;BME280;46439;51.164;13.572;2022-08-30T12:23:18;100535.05;;;22.85;80.28
60611;BME280;46439;51.164;13.572;2022-08-30T12:25:48;100535.55;;;22.82;80.42
60611;BME280;46439;51.164;13.572;2022-08-30T12:28:22;100537.77;;;22.81;80.20
60611;BME280;46439;51.164;13.572;2022-08-30T12:30:54;100535.73;;;22.82;80.45
60611;BME280;46439;51.164;13.572;2022-08-30T12:33:40;100533.71;;;22.87;80.31
60611;BME280;46439;51.164;13.572;2022-08-30T12:36:15;100529.52;;;22.98;80.53
60611;BME280;46439;51.164;13.572;2022-08-30T12:39:07;100530.42;;;23.16;81.04
60611;BME280;46439;51.164;13.572;2022-08-30T12:41:36;100526.45;;;23.31;81.01
60611;BME280;46439;51.164;13.572;2022-08-30T12:44:08;100520.80;;;23.47;81.12
60611;BME280;46439;51.164;13.572;2022-08-30T12:46:41;100519.60;;;23.57;81.10
60611;BME280;46439;51.164;13.572;2022-08-30T12:49:11;100514.01;;;23.67;81.07
60611;BME280;46439;51.164;13.572;2022-08-30T12:51:42;100512.60;;;23.76;81.06
60611;BME280;46439;51.164;13.572;2022-08-30T12:54:17;100511.02;;;23.75;80.81
60611;BME280;46439;51.164;13.572;2022-08-30T12:57:02;100506.30;;;23.84;80.76
60611;BME280;46439;51.164;13.572;2022-08-30T12:59:57;100508.46;;;23.96;80.74
60611;BME280;46439;51.164;13.572;2022-08-30T13:02:27;100507.11;;;24.10;80.88
60611;BME280;46439;51.164;13.572;2022-08-30T13:05:41;100507.70;;;24.17;81.08
60611;BME280;46439;51.164;13.572;2022-08-30T13:08:10;100502.55;;;24.21;80.74
60611;BME280;46439;51.164;13.572;2022-08-30T13:10:52;100500.84;;;24.19;80.76
60611;BME280;46439;51.164;13.572;2022-08-30T13:13:35;100496.94;;;24.16;80.60
60611;BME280;46439;51.164;13.572;2022-08-30T13:16:23;100501.58;;;24.09;80.10